createdAt,value
2022-08-29T00:01:43.918Z,35.3
2022-08-29T00:07:28.509Z,35.3
2022-08-29T00:13:08.835Z,35.2
2022-08-29T00:18:54.112Z,35.2
2022-08-29T00:24:20.457Z,35.1
2022-08-29T00:29:45.698Z,35.1
2022-08-29T00:35:23.120Z,35.1
2022-08-29T00:41:08.236Z,35.1
2022-08-29T00:46:30.341Z,35.1
2022-08-29T00:51:36.531Z,35
2022-08-29T00:56:41.119Z,35
2022-08-29T01:02:17.295Z,35
2022-08-29T01:08:04.285Z,34.9
2022-08-29T01:13:55.386Z,34.9
2022-08-29T01:19:32.579Z,34.9
2022-08-29T01:24:38.370Z,34.9
2022-08-29T01:30:15.712Z,34.8
2022-08-29T01:36:27.633Z,34.8
2022-08-29T01:42:07.485Z,34.8
2022-08-29T01:47:48.384Z,34.8
2022-08-29T01:53:24.765Z,34.7
2022-08-29T01:59:05.931Z,34.7
2022-08-29T02:04:29.834Z,34.7
2022-08-29T02:10:07.061Z,34.6
2022-08-29T02:15:43.265Z,34.6
2022-08-29T02:21:04.827Z,34.6
2022-08-29T02:27:09.853Z,34.6
2022-08-29T02:32:20.691Z,34.4
2022-08-29T02:37:51.083Z,34.3
2022-08-29T02:43:27.339Z,34.1
2022-08-29T02:49:17.547Z,34.1
2022-08-29T02:54:59.993Z,34
2022-08-29T03:00:08.800Z,33.9
2022-08-29T03:05:30.451Z,33.9
2022-08-29T03:11:13.891Z,33.9
2022-08-29T03:16:36.449Z,33.8
2022-08-29T03:22:14.014Z,33.8
2022-08-29T03:28:00.309Z,33.7
2022-08-29T03:33:25.322Z,33.7
2022-08-29T03:38:32.906Z,33.6
2022-08-29T03:44:09.801Z,33.6
2022-08-29T03:49:48.891Z,33.6
2022-08-29T03:55:27.653Z,33.6
2022-08-29T04:01:05.006Z,33.5
2022-08-29T04:06:46.692Z,33.5
2022-08-29T04:12:23.123Z,33.4
2022-08-29T04:18:09.566Z,33.4
2022-08-29T04:23:48.099Z,33.4
2022-08-29T04:29:54.608Z,33.3
2022-08-29T04:35:41.674Z,33.3
2022-08-29T04:41:19.343Z,33.3
2022-08-29T04:46:57.833Z,33.3
2022-08-29T04:52:41.603Z,33.2
2022-08-29T04:58:11.988Z,33.2
2022-08-29T05:03:38.824Z,33.2
2022-08-29T05:09:27.265Z,33.1
2022-08-29T05:15:04.628Z,33.1
2022-08-29T05:20:48.498Z,33.1
2022-08-29T05:26:29.564Z,33.1
2022-08-29T05:32:19.185Z,33.1
2022-08-29T05:37:59.555Z,33
2022-08-29T05:43:39.100Z,33
2022-08-29T05:49:28.830Z,32.9
2022-08-29T05:55:05.744Z,32.9
2022-08-29T06:00:43.770Z,32.7
2022-08-29T06:06:26.969Z,32.6
2022-08-29T06:12:04.396Z,32.4
2022-08-29T06:17:45.177Z,32.4
2022-08-29T06:23:32.565Z,32.3
2022-08-29T06:29:46.344Z,32.2
2022-08-29T06:35:24.574Z,43.4
2022-08-29T06:41:02.606Z,42.1
2022-08-29T06:46:42.792Z,40.4
2022-08-29T06:52:30.696Z,43.9
2022-08-29T06:58:41.438Z,46.2
2022-08-29T07:04:37.600Z,46.9
2022-08-29T07:10:39.116Z,47.6
2022-08-29T07:16:20.128Z,47.8
2022-08-29T07:22:14.893Z,48.1
2022-08-29T07:27:55.317Z,48
2022-08-29T07:33:47.920Z,48
2022-08-29T07:39:45.839Z,47.7
2022-08-29T07:45:35.810Z,48.1
2022-08-29T07:51:24.907Z,48.6
2022-08-29T07:57:09.941Z,49.3
2022-08-29T08:02:35.904Z,50.1
2022-08-29T08:08:31.525Z,50.4
2022-08-29T08:14:20.189Z,51.4
2022-08-29T08:19:57.726Z,51.7
2022-08-29T08:25:47.367Z,52.6
2022-08-29T08:31:26.931Z,53.1
2022-08-29T08:36:57.475Z,53
2022-08-29T08:42:49.231Z,53.1
2022-08-29T08:48:31.826Z,53.7
2022-08-29T08:53:57.797Z,53.4
2022-08-29T08:59:19.267Z,53.8
2022-08-29T09:05:00.199Z,53.1
2022-08-29T09:10:39.003Z,52.6
2022-08-29T09:16:06.024Z,48.9
2022-08-29T09:22:31.511Z,45.3
2022-08-29T09:28:15.456Z,41.7
2022-08-29T09:34:00.444Z,41.3
2022-08-29T09:40:05.085Z,41.5
2022-08-29T09:45:45.862Z,41.7
2022-08-29T09:51:23.969Z,41.9
2022-08-29T09:57:11.231Z,42.1
2022-08-29T10:03:02.753Z,42.3
2022-08-29T10:08:47.840Z,42.4
2022-08-29T10:14:18.479Z,42.4
2022-08-29T10:20:25.725Z,42.4
2022-08-29T10:26:05.783Z,42.5
2022-08-29T10:31:28.370Z,44.3
2022-08-29T10:37:01.425Z,45.8
2022-08-29T10:42:48.218Z,46.9
2022-08-29T10:48:30.247Z,47.8
2022-08-29T10:54:25.491Z,48.9
2022-08-29T11:00:08.790Z,49.7
2022-08-29T11:05:47.147Z,50.3
2022-08-29T11:11:26.330Z,49.7
2022-08-29T11:17:07.274Z,49.9
2022-08-29T11:22:49.934Z,49.4
2022-08-29T11:28:35.448Z,48.6
2022-08-29T11:34:15.502Z,48.3
2022-08-29T11:39:52.516Z,48.1
2022-08-29T11:47:00.276Z,48
2022-08-29T11:52:45.654Z,48.2
2022-08-29T11:58:27.961Z,48.6
2022-08-29T12:04:26.683Z,49.3
2022-08-29T12:10:35.095Z,49.3
2022-08-29T12:16:02.766Z,49.1
2022-08-29T12:22:04.679Z,48.6
2022-08-29T12:28:26.119Z,48.3
2022-08-29T12:34:46.239Z,47.9
2022-08-29T12:40:42.105Z,47.6
2022-08-29T12:45:48.936Z,47.3
2022-08-29T12:51:27.349Z,47
2022-08-29T12:56:53.647Z,46.7
2022-08-29T13:02:36.891Z,46.4
2022-08-29T13:08:19.673Z,46
2022-08-29T13:14:03.996Z,45.7
2022-08-29T13:20:13.374Z,45.4
2022-08-29T13:25:55.725Z,44.9
2022-08-29T13:31:30.742Z,44.6
2022-08-29T13:37:20.666Z,44.1
2022-08-29T13:43:04.902Z,43.8
2022-08-29T13:48:44.560Z,43.4
2022-08-29T13:54:26.906Z,42.9
2022-08-29T14:00:07.298Z,41.9
2022-08-29T14:07:07.045Z,40
2022-08-29T14:12:50.774Z,38.6
2022-08-29T14:18:40.535Z,37.5
2022-08-29T14:24:02.795Z,36.6
2022-08-29T14:29:53.802Z,35.9
2022-08-29T14:36:00.660Z,35.3
2022-08-29T14:41:48.722Z,34.8
2022-08-29T14:47:28.319Z,34.4
2022-08-29T14:53:06.075Z,34.1
2022-08-29T14:59:30.020Z,33.7
2022-08-29T15:05:11.301Z,33.4
2022-08-29T15:10:44.286Z,33.1
2022-08-29T15:16:22.088Z,32.9
2022-08-29T15:23:34.733Z,32.6
2022-08-29T15:29:21.641Z,32.4
2022-08-29T15:35:01.309Z,32.3
2022-08-29T15:40:46.262Z,32.1
2022-08-29T15:46:37.846Z,32
2022-08-29T15:52:17.313Z,31.9
2022-08-29T15:58:07.732Z,31.6
2022-08-29T16:04:13.694Z,31
2022-08-29T16:10:05.823Z,30.5
